Time;durP1;ratioP1;P1;durP2;ratioP2;P2;SDS_P1;SDS_P2;PMS_P1;PMS_P2;Temp;Humidity;BMP_temperature;BMP_pressure;BME280_temperature;BME280_humidity;BME280_pressure;Samples;Min_cycle;Max_cycle;Signal;HPM_P1;HPM_P2
2022/05/20 00:00:17;;;;;;;6.75;4.65;;;;;;;;;;5096975;28;20594;-70
2022/05/20 00:02:43;;;;;;;5.53;4.78;;;;;;;;;;5099463;28;20134;-70
2022/05/20 00:05:09;;;;;;;7.15;5.03;;;;;;;;;;5094171;28;20191;-70
2022/05/20 00:07:35;;;;;;;7.65;5.55;;;;;;;;;;5104036;28;20030;-70
2022/05/20 00:10:01;;;;;;;6.30;4.93;;;;;;;;;;5099496;28;20488;-70
2022/05/20 00:12:28;;;;;;;6.88;5.00;;;;;;;;;;5092069;28;20035;-71
2022/05/20 00:14:54;;;;;;;11.90;5.32;;;;;;;;;;5099188;28;20027;-70
2022/05/20 00:17:20;;;;;;;6.28;5.68;;;;;;;;;;5092300;28;20052;-70
2022/05/20 00:19:46;;;;;;;7.43;5.20;;;;;;;;;;5093976;28;20073;-70
2022/05/20 00:22:12;;;;;;;8.93;5.10;;;;;;;;;;5101315;28;20068;-71
2022/05/20 00:25:45;;;;;;;10.38;5.85;;;;;;;;;;5097829;28;20027;-70
2022/05/20 00:27:24;;;;;;;10.73;6.07;;;;;;;;;;5095314;28;20028;-71
2022/05/20 00:29:51;;;;;;;9.30;5.70;;;;;;;;;;5097722;28;20039;-70
2022/05/20 00:32:17;;;;;;;10.50;6.40;;;;;;;;;;5100388;28;20095;-70
2022/05/20 00:34:43;;;;;;;9.95;6.22;;;;;;;;;;5099859;28;20054;-70
2022/05/20 00:37:09;;;;;;;6.50;5.57;;;;;;;;;;5093583;28;20286;-70
2022/05/20 00:39:35;;;;;;;10.38;6.10;;;;;;;;;;5088977;28;20050;-70
2022/05/20 00:42:09;;;;;;;9.43;5.85;;;;;;;;;;5094282;28;20553;-71
2022/05/20 00:44:35;;;;;;;8.40;5.47;;;;;;;;;;5092645;28;20110;-70
2022/05/20 00:47:01;;;;;;;5.93;5.07;;;;;;;;;;5099218;28;20028;-70
2022/05/20 00:49:29;;;;;;;5.70;4.93;;;;;;;;;;5098517;28;20498;-70
2022/05/20 00:51:55;;;;;;;6.43;5.45;;;;;;;;;;5093909;28;20036;-70
2022/05/20 00:54:26;;;;;;;7.03;5.50;;;;;;;;;;5093880;28;20030;-72
2022/05/20 00:57:01;;;;;;;6.13;5.53;;;;;;;;;;5106275;27;20041;-70
2022/05/20 00:59:29;;;;;;;7.63;5.57;;;;;;;;;;5100542;28;20547;-70
2022/05/20 01:01:56;;;;;;;5.80;5.03;;;;;;;;;;5094656;28;20028;-70
2022/05/20 01:04:23;;;;;;;10.02;5.35;;;;;;;;;;5094386;28;20020;-70
2022/05/20 01:06:50;;;;;;;6.85;5.47;;;;;;;;;;5097184;28;20035;-70
2022/05/20 01:09:16;;;;;;;9.10;5.45;;;;;;;;;;5095743;28;20047;-70
2022/05/20 01:11:42;;;;;;;8.20;5.15;;;;;;;;;;5097509;28;20047;-70
2022/05/20 01:14:10;;;;;;;7.78;5.13;;;;;;;;;;5099058;27;20028;-70
2022/05/20 01:16:37;;;;;;;6.55;4.80;;;;;;;;;;5093290;28;20040;-70
2022/05/20 01:19:07;;;;;;;7.53;5.10;;;;;;;;;;5097215;28;20036;-70
2022/05/20 01:21:33;;;;;;;5.82;4.68;;;;;;;;;;5096728;28;20031;-70
2022/05/20 01:23:59;;;;;;;8.93;5.53;;;;;;;;;;5096381;28;20488;-70
2022/05/20 01:26:26;;;;;;;6.50;5.18;;;;;;;;;;5098068;28;20035;-70
2022/05/20 01:28:52;;;;;;;9.52;5.22;;;;;;;;;;5096109;28;20016;-70
2022/05/20 01:31:18;;;;;;;9.70;4.90;;;;;;;;;;5097082;28;20023;-70
2022/05/20 01:33:48;;;;;;;7.20;5.25;;;;;;;;;;5099315;28;20836;-70
2022/05/20 01:36:18;;;;;;;8.05;5.65;;;;;;;;;;5096533;28;20036;-70
2022/05/20 01:38:44;;;;;;;7.43;5.35;;;;;;;;;;5098471;28;20020;-70
2022/05/20 01:41:29;;;;;;;8.95;5.13;;;;;;;;;;5099113;28;20055;-70
2022/05/20 01:44:13;;;;;;;7.18;5.18;;;;;;;;;;5097699;28;20039;-70
2022/05/20 01:46:41;;;;;;;6.53;5.30;;;;;;;;;;5098479;28;20031;-70
2022/05/20 01:49:17;;;;;;;11.18;4.95;;;;;;;;;;5097942;28;20585;-70
2022/05/20 01:51:46;;;;;;;8.30;4.97;;;;;;;;;;5096566;28;20031;-70
2022/05/20 01:54:17;;;;;;;5.13;4.60;;;;;;;;;;5094721;28;20042;-70
2022/05/20 01:56:46;;;;;;;6.18;4.90;;;;;;;;;;5096192;28;20050;-70
2022/05/20 01:59:21;;;;;;;9.82;5.47;;;;;;;;;;5099583;28;20024;-70
2022/05/20 02:01:52;;;;;;;5.82;5.10;;;;;;;;;;5096194;28;20551;-70
2022/05/20 02:04:21;;;;;;;6.20;5.07;;;;;;;;;;5100540;28;20020;-70
2022/05/20 02:06:50;;;;;;;11.45;5.00;;;;;;;;;;5100300;28;20034;-71
2022/05/20 02:09:20;;;;;;;7.38;5.43;;;;;;;;;;5096603;28;20026;-70
2022/05/20 02:11:48;;;;;;;6.88;4.95;;;;;;;;;;5094197;28;20028;-70
2022/05/20 02:14:21;;;;;;;10.20;5.50;;;;;;;;;;5107295;27;20031;-70
2022/05/20 02:16:50;;;;;;;10.90;5.22;;;;;;;;;;5095821;28;20024;-70
2022/05/20 02:19:18;;;;;;;5.93;5.20;;;;;;;;;;5097766;28;20507;-70
2022/05/20 02:21:46;;;;;;;7.43;5.20;;;;;;;;;;5095967;28;20058;-70
2022/05/20 02:24:14;;;;;;;6.85;5.38;;;;;;;;;;5095269;28;20058;-70
2022/05/20 02:26:48;;;;;;;7.35;5.30;;;;;;;;;;5091937;28;20073;-70
2022/05/20 02:29:16;;;;;;;8.85;5.88;;;;;;;;;;5094071;28;20019;-71
2022/05/20 02:31:46;;;;;;;8.90;6.25;;;;;;;;;;5093291;28;20383;-71
2022/05/20 02:34:13;;;;;;;7.32;6.13;;;;;;;;;;5085555;28;20048;-70
2022/05/20 02:36:40;;;;;;;11.52;6.38;;;;;;;;;;5083195;28;20321;-70
2022/05/20 02:39:14;;;;;;;10.00;6.32;;;;;;;;;;5083555;28;20480;-70
2022/05/20 02:41:43;;;;;;;9.07;6.05;;;;;;;;;;5081041;28;20043;-70
2022/05/20 02:44:09;;;;;;;9.18;7.15;;;;;;;;;;5083493;28;20027;-71
2022/05/20 02:46:36;;;;;;;7.65;5.75;;;;;;;;;;5083192;28;20045;-70
2022/05/20 02:49:02;;;;;;;10.45;6.72;;;;;;;;;;5083323;28;20016;-70
2022/05/20 02:51:29;;;;;;;8.60;6.55;;;;;;;;;;5082100;28;20415;-70
2022/05/20 02:53:55;;;;;;;9.98;6.50;;;;;;;;;;5087555;28;20392;-70
2022/05/20 02:56:21;;;;;;;9.18;6.40;;;;;;;;;;5086063;28;20067;-70
2022/05/20 03:04:17;;;;;;;7.30;6.10;;;;;;;;;;5081565;28;20057;-71
2022/05/20 03:06:44;;;;;;;7.60;5.80;;;;;;;;;;5082348;28;20046;-73
2022/05/20 03:09:12;;;;;;;9.70;6.20;;;;;;;;;;5082474;28;20020;-70
2022/05/20 03:11:41;;;;;;;10.05;6.25;;;;;;;;;;5090377;28;20019;-70
2022/05/20 03:14:09;;;;;;;8.45;6.03;;;;;;;;;;5082750;28;20040;-70
2022/05/20 03:16:36;;;;;;;8.88;5.82;;;;;;;;;;5084887;28;20399;-70
2022/05/20 03:19:02;;;;;;;9.68;6.38;;;;;;;;;;5081454;28;20113;-70
2022/05/20 03:21:28;;;;;;;9.02;6.25;;;;;;;;;;5093627;28;20083;-70
2022/05/20 03:23:55;;;;;;;12.65;6.43;;;;;;;;;;5099236;28;20027;-70
2022/05/20 03:26:21;;;;;;;8.10;6.10;;;;;;;;;;5093209;28;20106;-70
2022/05/20 03:28:47;;;;;;;8.13;5.80;;;;;;;;;;5086571;28;20683;-70
2022/05/20 03:31:14;;;;;;;9.90;6.15;;;;;;;;;;5090400;28;20027;-71
2022/05/20 03:33:41;;;;;;;7.28;5.63;;;;;;;;;;5099413;28;20024;-70
2022/05/20 03:36:07;;;;;;;10.88;5.78;;;;;;;;;;5100396;28;20031;-70
2022/05/20 03:38:34;;;;;;;7.18;5.25;;;;;;;;;;5098855;28;20101;-70
2022/05/20 03:41:00;;;;;;;6.55;5.35;;;;;;;;;;5099241;28;20047;-70
2022/05/20 03:43:26;;;;;;;7.03;5.70;;;;;;;;;;5099231;28;20024;-70
2022/05/20 03:45:53;;;;;;;9.15;5.63;;;;;;;;;;5100112;28;20043;-70
2022/05/20 03:48:19;;;;;;;8.60;5.07;;;;;;;;;;5096158;28;20015;-71
2022/05/20 03:50:45;;;;;;;7.07;5.20;;;;;;;;;;5086299;28;20093;-70
2022/05/20 03:53:12;;;;;;;12.55;5.30;;;;;;;;;;5079709;28;20040;-70
2022/05/20 03:55:38;;;;;;;8.55;5.22;;;;;;;;;;5078829;28;20489;-71
2022/05/20 03:58:05;;;;;;;7.50;5.57;;;;;;;;;;5078661;28;20843;-70
2022/05/20 04:00:31;;;;;;;8.43;5.20;;;;;;;;;;5077328;28;20040;-70
2022/05/20 04:02:58;;;;;;;6.78;6.00;;;;;;;;;;5078419;28;20200;-70
2022/05/20 04:05:24;;;;;;;9.20;5.35;;;;;;;;;;5077852;28;20028;-70
2022/05/20 04:07:50;;;;;;;6.95;5.18;;;;;;;;;;5076334;28;20031;-70
2022/05/20 04:10:16;;;;;;;8.38;5.35;;;;;;;;;;5078339;28;20024;-70
2022/05/20 04:12:43;;;;;;;6.13;4.65;;;;;;;;;;5079245;28;20020;-70
2022/05/20 04:15:11;;;;;;;8.88;4.47;;;;;;;;;;5078547;28;20028;-70
2022/05/20 04:17:37;;;;;;;7.03;4.50;;;;;;;;;;5078359;28;20500;-71
2022/05/20 04:20:04;;;;;;;7.75;4.72;;;;;;;;;;5079788;28;20492;-70
2022/05/20 04:22:31;;;;;;;8.75;5.50;;;;;;;;;;5082383;28;20190;-70
2022/05/20 04:24:58;;;;;;;10.38;5.47;;;;;;;;;;5083205;28;20059;-70
2022/05/20 04:27:24;;;;;;;9.90;5.18;;;;;;;;;;5096214;28;20043;-70
2022/05/20 04:29:50;;;;;;;8.10;5.30;;;;;;;;;;5103378;28;20041;-70
2022/05/20 04:32:17;;;;;;;9.63;5.78;;;;;;;;;;5103641;28;20475;-71
2022/05/20 04:34:43;;;;;;;8.60;6.05;;;;;;;;;;5104166;28;20031;-70
2022/05/20 04:37:09;;;;;;;8.00;6.53;;;;;;;;;;5102595;28;20023;-70
2022/05/20 04:39:35;;;;;;;12.00;8.35;;;;;;;;;;5088929;28;20128;-70
2022/05/20 04:47:32;;;;;;;11.05;8.48;;;;;;;;;;5081859;28;20055;-70
2022/05/20 04:49:59;;;;;;;14.88;9.82;;;;;;;;;;5082903;28;20077;-71
2022/05/20 04:52:25;;;;;;;13.13;8.90;;;;;;;;;;5081006;28;20027;-71
2022/05/20 04:54:52;;;;;;;11.00;8.60;;;;;;;;;;5081453;28;20024;-70
2022/05/20 04:57:18;;;;;;;16.35;9.90;;;;;;;;;;5082844;28;20024;-70
2022/05/20 04:59:45;;;;;;;15.02;11.45;;;;;;;;;;5082947;28;20036;-70
2022/05/20 05:02:13;;;;;;;22.23;12.90;;;;;;;;;;5083195;28;20052;-70
2022/05/20 05:04:39;;;;;;;26.48;18.58;;;;;;;;;;5082001;28;20024;-70
2022/05/20 05:07:09;;;;;;;24.35;15.05;;;;;;;;;;5082090;28;20036;-70
2022/05/20 05:09:35;;;;;;;21.67;13.55;;;;;;;;;;5082857;28;20148;-70
2022/05/20 05:12:03;;;;;;;17.80;11.27;;;;;;;;;;5082553;28;20032;-70
2022/05/20 05:14:29;;;;;;;18.65;12.48;;;;;;;;;;5102775;28;20035;-71
2022/05/20 05:16:55;;;;;;;18.25;13.57;;;;;;;;;;5092127;28;20582;-70
2022/05/20 05:19:22;;;;;;;16.58;12.50;;;;;;;;;;5080625;28;20063;-71
2022/05/20 05:21:48;;;;;;;17.60;11.70;;;;;;;;;;5082723;28;20027;-70
2022/05/20 05:24:15;;;;;;;17.58;10.38;;;;;;;;;;5083595;28;20190;-71
2022/05/20 05:26:42;;;;;;;20.42;10.82;;;;;;;;;;5089617;28;20023;-71
2022/05/20 05:29:08;;;;;;;13.30;8.77;;;;;;;;;;5103283;28;20034;-71
2022/05/20 05:31:34;;;;;;;10.38;8.25;;;;;;;;;;5091920;28;20047;-71
2022/05/20 05:34:00;;;;;;;7.28;6.20;;;;;;;;;;5103195;28;20047;-72
2022/05/20 05:36:27;;;;;;;11.32;5.47;;;;;;;;;;5100505;28;20118;-71
2022/05/20 05:38:53;;;;;;;9.98;6.00;;;;;;;;;;5101335;28;20038;-71
2022/05/20 05:41:20;;;;;;;16.42;6.90;;;;;;;;;;5102245;28;20057;-71
2022/05/20 05:43:47;;;;;;;7.70;6.75;;;;;;;;;;5082531;28;20073;-71
2022/05/20 05:46:13;;;;;;;14.02;6.70;;;;;;;;;;5081964;28;20040;-71
2022/05/20 05:48:39;;;;;;;10.77;6.07;;;;;;;;;;5081686;28;20025;-71
2022/05/20 05:51:06;;;;;;;11.35;7.05;;;;;;;;;;5081879;28;20078;-71
2022/05/20 05:53:32;;;;;;;9.43;5.55;;;;;;;;;;5088222;28;20525;-71
2022/05/20 05:55:59;;;;;;;12.02;6.13;;;;;;;;;;5092316;28;20381;-71
2022/05/20 05:58:27;;;;;;;7.97;4.70;;;;;;;;;;5081244;28;20091;-71
2022/05/20 06:00:54;;;;;;;9.23;5.18;;;;;;;;;;5094216;27;20188;-71
2022/05/20 06:03:21;;;;;;;9.70;5.18;;;;;;;;;;5095246;27;20031;-71
2022/05/20 06:05:47;;;;;;;6.85;4.72;;;;;;;;;;5085983;28;20024;-71
2022/05/20 06:08:14;;;;;;;5.93;4.22;;;;;;;;;;5094298;28;20039;-71
2022/05/20 06:10:40;;;;;;;7.80;4.65;;;;;;;;;;5091966;28;20024;-71
2022/05/20 06:13:06;;;;;;;12.43;4.40;;;;;;;;;;5088190;27;20062;-71
2022/05/20 06:15:33;;;;;;;7.07;4.75;;;;;;;;;;5092226;28;20103;-72
2022/05/20 06:17:59;;;;;;;7.32;5.00;;;;;;;;;;5103853;28;20028;-71
2022/05/20 06:20:25;;;;;;;9.75;5.95;;;;;;;;;;5096941;28;20043;-71
2022/05/20 06:22:52;;;;;;;16.77;5.93;;;;;;;;;;5107976;27;20103;-73
2022/05/20 06:25:19;;;;;;;9.32;5.25;;;;;;;;;;5086146;28;20086;-73
2022/05/20 06:27:45;;;;;;;8.98;5.55;;;;;;;;;;5082703;28;20020;-73
2022/05/20 06:30:13;;;;;;;8.55;5.40;;;;;;;;;;5095706;28;20170;-73
2022/05/20 06:32:39;;;;;;;12.30;5.80;;;;;;;;;;5102406;28;20130;-74
2022/05/20 06:40:37;;;;;;;6.63;5.10;;;;;;;;;;5092066;28;20097;-76
2022/05/20 06:43:04;;;;;;;6.35;5.20;;;;;;;;;;5093936;28;20020;-73
2022/05/20 06:45:33;;;;;;;7.30;4.63;;;;;;;;;;5101854;28;20024;-73
2022/05/20 06:47:59;;;;;;;7.82;4.40;;;;;;;;;;5094311;28;20020;-75
2022/05/20 06:50:25;;;;;;;10.73;5.18;;;;;;;;;;5082880;28;20036;-73
2022/05/20 06:52:51;;;;;;;5.18;4.43;;;;;;;;;;5082048;28;20585;-73
2022/05/20 06:55:18;;;;;;;7.82;4.72;;;;;;;;;;5083457;28;20028;-73
2022/05/20 06:57:44;;;;;;;8.65;4.60;;;;;;;;;;5097524;28;20096;-73
2022/05/20 07:00:11;;;;;;;8.02;4.55;;;;;;;;;;5100078;28;20123;-73
2022/05/20 07:02:38;;;;;;;8.13;5.25;;;;;;;;;;5084010;28;20016;-76
2022/05/20 07:05:06;;;;;;;7.53;5.60;;;;;;;;;;5083212;28;20036;-74
2022/05/20 07:07:32;;;;;;;10.68;5.82;;;;;;;;;;5099248;28;20035;-73
2022/05/20 07:09:59;;;;;;;8.65;5.80;;;;;;;;;;5087995;28;20024;-73
2022/05/20 07:12:25;;;;;;;9.70;6.07;;;;;;;;;;5082562;28;20046;-73
2022/05/20 07:14:51;;;;;;;6.65;5.15;;;;;;;;;;5091949;28;20036;-73
2022/05/20 07:17:18;;;;;;;8.93;5.28;;;;;;;;;;5098811;27;20426;-72
2022/05/20 07:19:44;;;;;;;8.93;5.38;;;;;;;;;;5100258;27;20585;-74
2022/05/20 07:22:11;;;;;;;9.70;5.22;;;;;;;;;;5091605;28;20035;-74
2022/05/20 07:24:37;;;;;;;8.88;5.70;;;;;;;;;;5091061;27;20178;-75
2022/05/20 07:27:04;;;;;;;8.38;4.97;;;;;;;;;;5122192;27;20055;-74
2022/05/20 07:29:30;;;;;;;7.65;4.82;;;;;;;;;;5118756;27;20395;-73
2022/05/20 07:31:56;;;;;;;6.97;4.80;;;;;;;;;;5120536;27;20030;-73
2022/05/20 07:34:23;;;;;;;5.65;4.40;;;;;;;;;;5094349;27;20028;-74
2022/05/20 07:36:49;;;;;;;6.20;4.75;;;;;;;;;;5099976;28;20508;-72
2022/05/20 07:39:15;;;;;;;5.45;4.15;;;;;;;;;;5100393;28;20080;-73
2022/05/20 07:41:41;;;;;;;5.80;4.57;;;;;;;;;;5088951;28;20035;-73
2022/05/20 07:44:07;;;;;;;6.25;4.50;;;;;;;;;;5111563;27;20033;-75
2022/05/20 07:46:33;;;;;;;5.82;4.78;;;;;;;;;;5078520;28;20039;-74
2022/05/20 07:49:00;;;;;;;7.85;4.75;;;;;;;;;;5120698;27;20027;-74
2022/05/20 07:51:27;;;;;;;11.20;4.78;;;;;;;;;;5102362;27;20023;-73
2022/05/20 07:53:59;;;;;;;7.95;5.45;;;;;;;;;;5114453;27;20027;-73
2022/05/20 07:56:40;;;;;;;10.50;6.13;;;;;;;;;;5118460;28;20023;-74
2022/05/20 07:59:14;;;;;;;8.45;6.47;;;;;;;;;;5101567;28;20023;-74
2022/05/20 08:01:42;;;;;;;11.20;6.07;;;;;;;;;;5100986;28;20544;-73
2022/05/20 08:07:06;;;;;;;8.88;5.95;;;;;;;;;;5095351;28;20123;-72
2022/05/20 08:09:32;;;;;;;10.98;6.30;;;;;;;;;;5094382;28;20020;-74
2022/05/20 08:11:59;;;;;;;8.88;6.18;;;;;;;;;;5086309;28;20054;-75
2022/05/20 08:14:26;;;;;;;9.13;6.13;;;;;;;;;;5105963;28;20023;-73
2022/05/20 08:16:53;;;;;;;10.88;6.53;;;;;;;;;;5087534;28;20024;-73
2022/05/20 08:19:19;;;;;;;10.35;6.50;;;;;;;;;;5087206;28;20044;-73
2022/05/20 08:21:46;;;;;;;10.95;5.07;;;;;;;;;;5085807;28;20063;-73
2022/05/20 08:24:12;;;;;;;6.85;5.78;;;;;;;;;;5085475;28;20025;-73
2022/05/20 08:26:38;;;;;;;9.57;6.20;;;;;;;;;;5082017;28;20028;-73
2022/05/20 08:29:04;;;;;;;12.45;5.65;;;;;;;;;;5082492;28;20537;-73
2022/05/20 08:31:30;;;;;;;6.28;5.28;;;;;;;;;;5107925;28;20025;-73
2022/05/20 08:33:57;;;;;;;8.77;5.35;;;;;;;;;;5112658;28;20031;-73
2022/05/20 08:36:24;;;;;;;6.53;5.07;;;;;;;;;;5121720;27;20464;-75
2022/05/20 08:38:50;;;;;;;6.88;5.15;;;;;;;;;;5102899;27;20478;-73
2022/05/20 08:41:19;;;;;;;6.72;4.93;;;;;;;;;;5099612;28;20031;-74
2022/05/20 08:43:46;;;;;;;5.53;5.00;;;;;;;;;;5101349;28;20042;-73
2022/05/20 08:46:21;;;;;;;8.55;5.05;;;;;;;;;;5101690;28;20407;-75
2022/05/20 08:48:53;;;;;;;6.85;4.50;;;;;;;;;;5098759;28;20026;-73
2022/05/20 08:51:19;;;;;;;6.75;4.70;;;;;;;;;;5081140;28;20021;-73
2022/05/20 08:53:47;;;;;;;7.30;4.47;;;;;;;;;;5080729;28;20488;-73
2022/05/20 08:56:15;;;;;;;4.60;4.15;;;;;;;;;;5086212;28;20472;-74
2022/05/20 08:58:47;;;;;;;9.63;4.07;;;;;;;;;;5081763;28;20031;-75
2022/05/20 09:01:13;;;;;;;8.10;4.47;;;;;;;;;;5098144;28;20038;-72
2022/05/20 09:03:39;;;;;;;5.93;4.00;;;;;;;;;;5121670;28;20080;-73
2022/05/20 09:06:07;;;;;;;5.55;4.18;;;;;;;;;;5098687;28;20032;-75
2022/05/20 09:08:34;;;;;;;6.20;4.25;;;;;;;;;;5103893;27;20030;-74
2022/05/20 09:11:02;;;;;;;4.57;4.18;;;;;;;;;;5099605;28;20170;-75
2022/05/20 09:16:16;;;;;;;7.60;4.38;;;;;;;;;;5105389;27;20043;-73
2022/05/20 09:18:44;;;;;;;7.38;4.85;;;;;;;;;;5096470;28;20024;-74
2022/05/20 09:21:24;;;;;;;8.75;4.82;;;;;;;;;;5107227;27;20035;-76
2022/05/20 09:23:55;;;;;;;14.48;4.63;;;;;;;;;;5124753;27;20527;-74
2022/05/20 09:26:23;;;;;;;7.97;4.40;;;;;;;;;;5108007;27;20024;-73
2022/05/20 09:29:10;;;;;;;5.80;4.55;;;;;;;;;;5103252;28;20476;-75
2022/05/20 09:31:51;;;;;;;6.43;3.53;;;;;;;;;;5104148;28;20673;-74
2022/05/20 09:34:29;;;;;;;8.98;4.28;;;;;;;;;;5095345;28;20034;-73
2022/05/20 09:36:57;;;;;;;4.97;4.57;;;;;;;;;;5081814;27;20506;-73
2022/05/20 09:39:43;;;;;;;6.03;4.40;;;;;;;;;;5098326;27;20460;-74
2022/05/20 09:42:17;;;;;;;7.60;4.88;;;;;;;;;;5122690;27;20533;-73
2022/05/20 09:44:44;;;;;;;5.15;4.25;;;;;;;;;;5102542;28;20015;-75
2022/05/20 09:47:23;;;;;;;8.57;5.32;;;;;;;;;;5095566;28;20215;-73
2022/05/20 09:49:58;;;;;;;9.55;6.20;;;;;;;;;;5102943;28;20449;-74
2022/05/20 09:52:31;;;;;;;5.78;4.90;;;;;;;;;;5086171;28;20035;-73
2022/05/20 09:55:01;;;;;;;9.95;5.70;;;;;;;;;;5087936;28;20024;-73
2022/05/20 09:57:30;;;;;;;7.17;5.03;;;;;;;;;;5095907;28;20024;-73
2022/05/20 10:00:04;;;;;;;6.43;4.70;;;;;;;;;;5095297;28;20047;-73
2022/05/20 10:02:33;;;;;;;10.32;5.20;;;;;;;;;;5101710;28;20306;-73
2022/05/20 10:05:05;;;;;;;7.07;5.05;;;;;;;;;;5084468;28;20397;-73
2022/05/20 10:07:43;;;;;;;10.15;6.00;;;;;;;;;;5089160;28;20056;-73
2022/05/20 10:10:15;;;;;;;7.68;5.30;;;;;;;;;;5095994;27;20031;-72
2022/05/20 10:12:44;;;;;;;6.97;5.40;;;;;;;;;;5087846;27;20520;-73
2022/05/20 10:15:28;;;;;;;7.32;4.57;;;;;;;;;;5093691;28;20034;-73
2022/05/20 10:18:01;;;;;;;8.18;5.50;;;;;;;;;;5079998;28;20432;-75
2022/05/20 10:20:34;;;;;;;6.22;4.75;;;;;;;;;;5082427;28;20043;-72
2022/05/20 10:23:12;;;;;;;7.35;4.28;;;;;;;;;;5099391;28;20405;-73
2022/05/20 10:25:53;;;;;;;9.73;4.75;;;;;;;;;;5089272;28;20059;-73
2022/05/20 10:34:01;;;;;;;5.45;4.03;;;;;;;;;;5091762;28;20069;-73
2022/05/20 10:36:45;;;;;;;4.95;4.20;;;;;;;;;;5112999;27;20065;-73
2022/05/20 10:39:26;;;;;;;7.45;4.07;;;;;;;;;;5106692;27;20050;-73
2022/05/20 10:41:59;;;;;;;12.07;4.03;;;;;;;;;;5082635;28;20040;-73
2022/05/20 10:50:16;;;;;;;6.82;3.55;;;;;;;;;;5101549;28;20059;-73
2022/05/20 10:52:58;;;;;;;4.00;3.05;;;;;;;;;;5111223;27;20029;-73
2022/05/20 10:55:31;;;;;;;4.35;3.20;;;;;;;;;;5118976;27;20024;-73
2022/05/20 10:58:16;;;;;;;5.82;3.03;;;;;;;;;;5099761;28;20023;-73
2022/05/20 11:00:45;;;;;;;4.80;2.70;;;;;;;;;;5095425;28;20091;-72
2022/05/20 11:03:20;;;;;;;7.28;2.67;;;;;;;;;;5114347;27;20059;-73
2022/05/20 11:06:00;;;;;;;5.22;3.20;;;;;;;;;;5123047;27;20056;-72
2022/05/20 11:08:26;;;;;;;2.70;2.33;;;;;;;;;;5097380;27;20038;-73
2022/05/20 11:11:14;;;;;;;8.23;2.83;;;;;;;;;;5091212;27;20020;-73
2022/05/20 11:13:57;;;;;;;7.00;2.70;;;;;;;;;;5106343;27;20015;-73
2022/05/20 11:16:33;;;;;;;7.95;3.67;;;;;;;;;;5122769;27;20015;-75
2022/05/20 11:19:08;;;;;;;7.43;2.67;;;;;;;;;;5102434;27;20073;-73
2022/05/20 11:21:40;;;;;;;16.80;2.80;;;;;;;;;;5097847;28;20130;-73
2022/05/20 11:24:13;;;;;;;6.25;2.60;;;;;;;;;;5101679;27;20024;-73
2022/05/20 11:26:45;;;;;;;7.47;2.72;;;;;;;;;;5100024;28;20496;-74
2022/05/20 11:29:24;;;;;;;6.43;2.80;;;;;;;;;;5100409;28;20513;-73
2022/05/20 11:31:55;;;;;;;6.53;2.92;;;;;;;;;;5100311;28;20038;-73
2022/05/20 11:34:32;;;;;;;6.25;2.78;;;;;;;;;;5091106;28;20040;-74
2022/05/20 11:37:07;;;;;;;6.93;2.78;;;;;;;;;;5101446;28;20020;-73
2022/05/20 11:39:45;;;;;;;4.55;2.60;;;;;;;;;;5096484;28;20450;-73
2022/05/20 11:42:11;;;;;;;3.60;2.50;;;;;;;;;;5093468;28;20031;-73
2022/05/20 11:44:39;;;;;;;5.60;2.67;;;;;;;;;;5099535;27;20051;-74
2022/05/20 11:47:22;;;;;;;4.75;2.83;;;;;;;;;;5111370;27;20023;-74
2022/05/20 11:50:07;;;;;;;6.00;3.10;;;;;;;;;;5111299;27;20020;-74
2022/05/20 11:52:59;;;;;;;5.43;2.83;;;;;;;;;;5106462;27;20088;-74
2022/05/20 11:55:28;;;;;;;4.60;2.80;;;;;;;;;;5076051;27;20867;-74
2022/05/20 11:58:06;;;;;;;5.05;3.03;;;;;;;;;;5081340;28;20027;-76
2022/05/20 12:00:35;;;;;;;4.70;2.80;;;;;;;;;;5097178;28;20055;-75
2022/05/20 12:03:07;;;;;;;4.80;3.10;;;;;;;;;;5088822;28;20035;-72
2022/05/20 12:05:37;;;;;;;5.07;3.20;;;;;;;;;;5080779;28;20024;-70
2022/05/20 12:08:04;;;;;;;4.82;2.72;;;;;;;;;;5081937;28;20052;-70
2022/05/20 12:10:33;;;;;;;6.68;2.70;;;;;;;;;;5081484;28;20031;-71
2022/05/20 12:13:08;;;;;;;7.38;2.97;;;;;;;;;;5081346;28;20023;-71
2022/05/20 12:15:38;;;;;;;7.00;3.40;;;;;;;;;;5079320;28;20402;-71
2022/05/20 12:24:15;;;;;;;6.30;2.72;;;;;;;;;;5099964;28;20031;-71
2022/05/20 12:26:41;;;;;;;6.97;3.22;;;;;;;;;;5083945;28;20028;-70
2022/05/20 12:29:26;;;;;;;10.45;3.63;;;;;;;;;;5078488;28;20820;-70
2022/05/20 12:31:52;;;;;;;6.57;3.17;;;;;;;;;;5089995;28;20044;-71
2022/05/20 12:34:38;;;;;;;6.55;3.38;;;;;;;;;;5091243;28;20583;-71
2022/05/20 12:37:04;;;;;;;4.90;3.40;;;;;;;;;;5119270;28;20035;-71
2022/05/20 12:39:50;;;;;;;4.03;2.78;;;;;;;;;;5118253;28;20084;-71
2022/05/20 12:42:27;;;;;;;5.72;2.83;;;;;;;;;;5089895;28;20044;-71
2022/05/20 12:44:53;;;;;;;5.00;3.03;;;;;;;;;;5101083;28;20123;-74
2022/05/20 12:47:31;;;;;;;3.47;2.85;;;;;;;;;;5092550;28;20039;-75
2022/05/20 12:50:03;;;;;;;3.85;2.65;;;;;;;;;;5101510;28;20957;-74
2022/05/20 12:52:50;;;;;;;5.95;2.85;;;;;;;;;;5099711;28;20035;-74
2022/05/20 12:55:16;;;;;;;5.38;2.80;;;;;;;;;;5092441;28;20058;-74
2022/05/20 12:57:53;;;;;;;5.38;2.90;;;;;;;;;;5086973;28;20035;-74
2022/05/20 13:00:26;;;;;;;4.18;2.80;;;;;;;;;;5096966;28;20028;-74
2022/05/20 13:02:58;;;;;;;4.75;2.70;;;;;;;;;;5100519;28;20031;-74
2022/05/20 13:05:32;;;;;;;5.32;2.90;;;;;;;;;;5088262;28;20024;-71
2022/05/20 13:07:58;;;;;;;3.92;3.03;;;;;;;;;;5082159;28;20024;-71
2022/05/20 13:10:24;;;;;;;7.05;3.05;;;;;;;;;;5090559;28;20043;-72
2022/05/20 13:12:51;;;;;;;4.13;3.03;;;;;;;;;;5092164;28;20023;-71
2022/05/20 13:15:19;;;;;;;6.22;2.95;;;;;;;;;;5082973;28;20119;-72
2022/05/20 13:17:51;;;;;;;7.35;3.30;;;;;;;;;;5108829;27;20027;-72
2022/05/20 13:20:17;;;;;;;5.18;2.70;;;;;;;;;;5104924;27;20048;-71
2022/05/20 13:22:51;;;;;;;3.58;3.00;;;;;;;;;;5081612;28;20020;-72
2022/05/20 13:25:17;;;;;;;3.88;2.85;;;;;;;;;;5099191;28;20094;-73
2022/05/20 13:27:47;;;;;;;4.57;3.10;;;;;;;;;;5100268;28;20039;-73
2022/05/20 13:30:16;;;;;;;4.60;2.80;;;;;;;;;;5097930;28;20016;-73
2022/05/20 13:32:43;;;;;;;7.85;2.60;;;;;;;;;;5082850;28;20024;-73
2022/05/20 13:35:09;;;;;;;4.40;2.83;;;;;;;;;;5092100;28;20035;-73
2022/05/20 13:37:45;;;;;;;5.03;3.00;;;;;;;;;;5101257;28;20031;-73
2022/05/20 13:40:18;;;;;;;4.72;2.88;;;;;;;;;;5102346;28;20043;-74
2022/05/20 13:42:55;;;;;;;4.05;3.00;;;;;;;;;;5088884;28;20027;-73
2022/05/20 13:49:13;;;;;;;7.78;2.78;;;;;;;;;;5081383;28;20081;-74
2022/05/20 13:51:03;;;;;;;6.05;3.45;;;;;;;;;;5090435;28;20070;-71
2022/05/20 13:53:31;;;;;;;3.25;2.80;;;;;;;;;;5086951;28;20064;-72
2022/05/20 13:55:57;;;;;;;6.95;3.40;;;;;;;;;;5088901;28;20024;-71
2022/05/20 13:58:24;;;;;;;8.25;3.30;;;;;;;;;;5119413;27;20027;-71
2022/05/20 14:00:51;;;;;;;3.78;3.03;;;;;;;;;;5116230;27;20480;-72
2022/05/20 14:03:20;;;;;;;4.82;3.00;;;;;;;;;;5099305;28;20051;-72
2022/05/20 14:05:57;;;;;;;4.07;3.05;;;;;;;;;;5086723;28;20031;-72
2022/05/20 14:08:24;;;;;;;3.90;3.05;;;;;;;;;;5095236;28;20562;-72
2022/05/20 14:10:51;;;;;;;3.95;2.97;;;;;;;;;;5100563;28;20030;-72
2022/05/20 14:13:26;;;;;;;5.38;3.30;;;;;;;;;;5097463;28;20035;-72
2022/05/20 14:15:53;;;;;;;4.30;2.70;;;;;;;;;;5096315;28;21613;-72
2022/05/20 14:18:25;;;;;;;4.13;2.97;;;;;;;;;;5083880;28;20028;-72
2022/05/20 14:21:11;;;;;;;3.28;2.65;;;;;;;;;;5081461;28;20059;-72
2022/05/20 14:23:44;;;;;;;2.88;2.53;;;;;;;;;;5079232;28;20035;-72
2022/05/20 14:26:12;;;;;;;4.00;2.97;;;;;;;;;;5090674;28;20387;-72
2022/05/20 14:28:57;;;;;;;4.30;2.80;;;;;;;;;;5086159;28;20051;-71
2022/05/20 14:31:38;;;;;;;5.82;3.33;;;;;;;;;;5078972;28;20135;-72
2022/05/20 14:34:08;;;;;;;5.10;2.88;;;;;;;;;;5088392;27;20028;-71
2022/05/20 14:36:36;;;;;;;9.75;4.05;;;;;;;;;;5081842;28;20027;-72
2022/05/20 14:39:03;;;;;;;5.95;3.75;;;;;;;;;;5080243;28;20354;-72
2022/05/20 14:41:30;;;;;;;8.73;3.70;;;;;;;;;;5080849;28;20040;-72
2022/05/20 14:43:57;;;;;;;4.70;3.13;;;;;;;;;;5091303;28;20465;-72
2022/05/20 14:49:23;;;;;;;4.88;2.92;;;;;;;;;;5118935;27;20078;-72
2022/05/20 14:51:55;;;;;;;5.47;3.28;;;;;;;;;;5121219;27;20057;-72
2022/05/20 14:54:22;;;;;;;8.43;3.80;;;;;;;;;;5100090;27;20601;-72
2022/05/20 14:56:48;;;;;;;4.60;3.20;;;;;;;;;;5095402;28;20023;-72
2022/05/20 14:59:28;;;;;;;4.60;3.45;;;;;;;;;;5092684;28;20061;-72
2022/05/20 15:01:55;;;;;;;5.80;3.15;;;;;;;;;;5080414;28;20057;-72
2022/05/20 15:04:22;;;;;;;6.30;3.10;;;;;;;;;;5094497;28;20122;-72
2022/05/20 15:06:48;;;;;;;5.00;3.25;;;;;;;;;;5096371;28;20030;-71
2022/05/20 15:09:25;;;;;;;9.60;3.45;;;;;;;;;;5099754;28;20027;-71
2022/05/20 15:11:52;;;;;;;5.47;3.15;;;;;;;;;;5091397;28;20055;-72
2022/05/20 15:14:18;;;;;;;5.30;3.35;;;;;;;;;;5096950;28;20084;-71
2022/05/20 15:16:44;;;;;;;4.75;3.30;;;;;;;;;;5082142;28;20032;-71
2022/05/20 15:19:11;;;;;;;5.75;3.38;;;;;;;;;;5079680;28;20035;-71
2022/05/20 15:21:39;;;;;;;4.93;3.10;;;;;;;;;;5082320;28;20048;-71
2022/05/20 15:24:06;;;;;;;5.78;2.90;;;;;;;;;;5079220;28;20031;-71
2022/05/20 15:26:33;;;;;;;5.25;3.00;;;;;;;;;;5080965;28;20039;-71
2022/05/20 15:29:00;;;;;;;7.50;3.28;;;;;;;;;;5083296;28;20050;-71
2022/05/20 15:37:00;;;;;;;3.65;2.75;;;;;;;;;;5091011;28;20042;-71
2022/05/20 15:39:28;;;;;;;4.32;3.35;;;;;;;;;;5098299;28;20106;-71
2022/05/20 15:41:54;;;;;;;6.00;3.17;;;;;;;;;;5098037;28;20032;-71
2022/05/20 15:44:20;;;;;;;5.22;3.50;;;;;;;;;;5099392;28;20020;-71